Time;durP1;ratioP1;P1;durP2;ratioP2;P2;SDS_P1;SDS_P2;PMS_P1;PMS_P2;Temp;Humidity;BMP_temperature;BMP_pressure;BME280_temperature;BME280_humidity;BME280_pressure;Samples;Min_cycle;Max_cycle;Signal;HPM_P1;HPM_P2
2022/09/21 00:02:24;;;;;;;4.80;1.77;;;9.30;99.90;;;;;;4972210;28;20019;-71
2022/09/21 00:04:50;;;;;;;5.68;2.08;;;9.20;99.90;;;;;;4972401;28;20117;-70
2022/09/21 00:07:16;;;;;;;3.83;1.38;;;9.20;99.90;;;;;;4972545;28;20027;-71
2022/09/21 00:09:41;;;;;;;4.50;1.92;;;9.20;99.90;;;;;;4972146;28;20460;-72
2022/09/21 00:12:08;;;;;;;2.60;1.60;;;9.20;99.90;;;;;;4971942;28;20055;-70
2022/09/21 00:14:33;;;;;;;4.53;1.80;;;9.20;99.90;;;;;;4955298;28;20038;-71
2022/09/21 00:16:59;;;;;;;6.00;1.55;;;9.20;99.90;;;;;;4974805;28;20023;-70
2022/09/21 00:19:24;;;;;;;3.30;1.80;;;9.20;99.90;;;;;;4976079;28;20031;-70
2022/09/21 00:21:53;;;;;;;3.38;1.38;;;9.20;99.90;;;;;;4975952;28;20035;-70
2022/09/21 00:24:19;;;;;;;5.13;1.70;;;9.20;99.90;;;;;;4975753;28;20033;-70
2022/09/21 00:26:44;;;;;;;2.65;1.48;;;9.20;99.90;;;;;;4975863;28;20034;-71
2022/09/21 00:29:10;;;;;;;6.35;1.42;;;9.20;99.90;;;;;;4976119;28;20074;-71
2022/09/21 00:31:36;;;;;;;4.30;1.67;;;9.10;99.90;;;;;;4975747;28;20059;-69
2022/09/21 00:34:02;;;;;;;8.20;1.60;;;9.10;99.90;;;;;;4975359;28;20035;-70
2022/09/21 00:36:28;;;;;;;7.05;1.92;;;9.10;99.90;;;;;;4975809;28;20129;-70
2022/09/21 00:38:57;;;;;;;5.82;1.75;;;9.10;99.90;;;;;;4975530;28;20031;-71
2022/09/21 00:41:24;;;;;;;5.78;2.10;;;9.00;99.90;;;;;;4975750;28;20097;-71
2022/09/21 00:44:15;;;;;;;2.42;1.60;;;9.00;99.90;;;;;;4975507;28;20031;-70
2022/09/21 00:46:42;;;;;;;6.80;2.35;;;9.00;99.90;;;;;;4957764;28;20023;-72
2022/09/21 00:49:09;;;;;;;4.05;2.13;;;9.00;99.90;;;;;;4975562;28;20106;-71
2022/09/21 00:51:36;;;;;;;5.97;1.90;;;9.00;99.90;;;;;;4975004;28;20047;-71
2022/09/21 00:54:13;;;;;;;5.40;1.90;;;9.00;99.90;;;;;;4974902;28;20073;-71
2022/09/21 00:56:40;;;;;;;6.55;2.10;;;8.90;99.90;;;;;;4975908;28;20109;-72
2022/09/21 00:59:08;;;;;;;10.45;2.30;;;8.90;99.90;;;;;;4975664;28;20031;-69
2022/09/21 01:01:35;;;;;;;5.47;2.17;;;8.90;99.90;;;;;;4974939;28;20042;-71
2022/09/21 01:04:01;;;;;;;14.50;1.80;;;8.80;99.90;;;;;;4974697;28;20024;-71
2022/09/21 01:06:27;;;;;;;13.88;2.70;;;8.80;99.90;;;;;;4974816;28;20043;-70
2022/09/21 01:08:55;;;;;;;4.32;1.63;;;8.80;99.90;;;;;;4974706;28;20031;-71
2022/09/21 01:11:24;;;;;;;4.03;1.40;;;8.80;99.90;;;;;;4974524;28;20042;-72
2022/09/21 01:14:04;;;;;;;13.75;2.67;;;8.80;99.90;;;;;;4974124;28;20053;-71
2022/09/21 01:16:45;;;;;;;6.72;2.00;;;8.70;99.90;;;;;;4975423;28;20033;-71
2022/09/21 01:19:31;;;;;;;6.13;1.77;;;8.80;99.90;;;;;;4975189;28;20122;-71
2022/09/21 01:22:13;;;;;;;9.85;2.42;;;8.70;99.90;;;;;;4974078;28;20027;-71
2022/09/21 01:25:09;;;;;;;7.00;2.03;;;8.70;99.90;;;;;;4974891;28;20094;-72
2022/09/21 01:28:05;;;;;;;5.65;2.15;;;8.70;99.90;;;;;;4973236;28;20035;-71
2022/09/21 01:30:34;;;;;;;9.00;2.00;;;8.80;99.90;;;;;;4974825;28;20094;-72
2022/09/21 01:33:14;;;;;;;7.10;2.13;;;8.70;99.90;;;;;;4974658;28;20043;-72
2022/09/21 01:35:46;;;;;;;6.85;1.73;;;8.70;99.90;;;;;;4974681;28;20046;-71
2022/09/21 01:38:40;;;;;;;2.97;1.60;;;8.70;99.90;;;;;;4974953;28;20016;-72
2022/09/21 01:41:09;;;;;;;3.90;2.03;;;8.70;99.90;;;;;;4964048;28;20039;-71
2022/09/21 01:43:39;;;;;;;3.92;2.33;;;8.60;99.90;;;;;;4975147;28;20433;-70
2022/09/21 01:46:09;;;;;;;3.42;1.90;;;8.60;99.90;;;;;;4973901;28;20027;-71
2022/09/21 01:48:40;;;;;;;8.82;2.08;;;8.50;99.90;;;;;;4974780;28;20042;-71
2022/09/21 01:51:10;;;;;;;9.55;1.83;;;8.50;99.90;;;;;;4973824;28;20094;-70
2022/09/21 01:53:50;;;;;;;12.80;2.30;;;8.50;99.90;;;;;;4974286;28;20027;-70
2022/09/21 01:56:24;;;;;;;3.20;1.70;;;8.40;99.90;;;;;;4980067;28;20019;-70
2022/09/21 01:59:04;;;;;;;;;;;8.50;99.90;;;;;;4974662;28;20031;-72
2022/09/21 02:01:39;;;;;;;6.43;2.08;;;8.40;99.90;;;;;;4974007;28;19971;-71
2022/09/21 02:04:10;;;;;;;4.05;2.05;;;8.40;99.90;;;;;;4973773;28;20023;-71
2022/09/21 02:06:40;;;;;;;4.85;2.28;;;8.30;99.90;;;;;;4974589;28;20058;-72
2022/09/21 02:09:07;;;;;;;7.05;1.77;;;8.30;99.90;;;;;;4973347;28;20025;-71
2022/09/21 02:11:33;;;;;;;22.17;2.65;;;8.30;99.90;;;;;;4955810;28;20027;-70
2022/09/21 02:13:58;;;;;;;5.70;2.30;;;8.20;99.90;;;;;;4973574;28;20050;-70
2022/09/21 02:16:38;;;;;;;12.40;2.20;;;8.20;99.90;;;;;;4956470;28;20090;-70
2022/09/21 02:19:14;;;;;;;5.65;2.22;;;8.20;99.90;;;;;;4973920;28;20436;-70
2022/09/21 02:22:02;;;;;;;8.65;2.40;;;8.20;99.90;;;;;;4973564;28;20027;-72
2022/09/21 02:24:42;;;;;;;5.10;2.03;;;8.10;99.90;;;;;;4973599;28;20027;-71
2022/09/21 02:27:38;;;;;;;5.32;1.98;;;8.20;99.90;;;;;;4973124;28;20076;-70
2022/09/21 02:30:14;;;;;;;3.28;1.73;;;8.20;99.90;;;;;;4973607;28;20053;-71
2022/09/21 02:33:03;;;;;;;4.35;2.17;;;8.20;99.90;;;;;;4973378;28;20444;-72
2022/09/21 02:35:44;;;;;;;7.15;1.90;;;8.30;99.90;;;;;;4972900;28;20058;-70
2022/09/21 02:38:37;;;;;;;11.57;1.98;;;8.20;99.90;;;;;;4972736;28;20031;-70
2022/09/21 02:41:22;;;;;;;7.78;2.03;;;8.20;99.90;;;;;;4973272;28;20027;-70
2022/09/21 02:43:54;;;;;;;8.27;1.77;;;8.20;99.90;;;;;;4972935;28;20057;-71
2022/09/21 02:46:29;;;;;;;7.68;2.30;;;8.10;99.90;;;;;;4973031;28;20544;-71
2022/09/21 02:49:00;;;;;;;8.88;1.92;;;8.10;99.90;;;;;;4973415;28;20127;-71
2022/09/21 02:51:30;;;;;;;4.72;1.88;;;8.10;99.90;;;;;;4972763;28;20023;-70
2022/09/21 02:53:58;;;;;;;4.70;1.80;;;8.10;99.90;;;;;;4973159;28;20122;-70
2022/09/21 02:56:25;;;;;;;3.78;2.10;;;8.10;99.90;;;;;;4972893;28;20023;-71
2022/09/21 02:58:53;;;;;;;14.63;2.40;;;8.10;99.90;;;;;;4972248;28;20023;-71
2022/09/21 03:01:21;;;;;;;4.45;1.42;;;8.10;99.90;;;;;;4972633;28;20039;-73
2022/09/21 03:03:47;;;;;;;5.50;1.63;;;8.00;99.90;;;;;;4972577;28;20082;-71
2022/09/21 03:06:13;;;;;;;6.53;2.30;;;8.00;99.90;;;;;;4972762;28;20043;-71
2022/09/21 03:08:40;;;;;;;7.00;2.15;;;8.00;99.90;;;;;;4972277;28;20027;-73
2022/09/21 03:11:06;;;;;;;10.27;2.50;;;8.00;99.90;;;;;;4973165;28;20389;-71
2022/09/21 03:13:32;;;;;;;4.55;1.83;;;7.90;99.90;;;;;;4971588;28;20047;-70
2022/09/21 03:16:00;;;;;;;3.33;1.75;;;7.90;99.90;;;;;;4973150;28;20255;-71
2022/09/21 03:18:25;;;;;;;7.25;1.90;;;7.90;99.90;;;;;;4972511;28;20032;-70
2022/09/21 03:20:51;;;;;;;7.18;2.22;;;7.90;99.90;;;;;;4973049;28;20030;-70
2022/09/21 03:23:16;;;;;;;7.60;2.78;;;7.80;99.90;;;;;;4972869;28;20031;-72
2022/09/21 03:25:46;;;;;;;3.90;1.73;;;7.90;99.90;;;;;;4955736;28;20027;-72
2022/09/21 03:28:13;;;;;;;5.43;1.67;;;7.80;99.90;;;;;;4972778;28;20070;-72
2022/09/21 03:30:39;;;;;;;8.43;1.85;;;7.80;99.90;;;;;;4972626;28;20043;-70
2022/09/21 03:33:05;;;;;;;3.95;1.70;;;7.80;99.90;;;;;;4972350;28;20083;-71
2022/09/21 03:35:32;;;;;;;7.40;2.03;;;7.80;99.90;;;;;;4970595;28;20053;-70
2022/09/21 03:37:58;;;;;;;4.55;2.35;;;7.70;99.90;;;;;;4972692;28;20024;-70
2022/09/21 03:40:26;;;;;;;5.35;2.75;;;7.80;99.90;;;;;;4972704;28;20027;-70
2022/09/21 03:42:52;;;;;;;8.70;2.00;;;7.80;99.90;;;;;;4972635;28;20077;-70
2022/09/21 03:45:18;;;;;;;5.97;2.10;;;7.70;99.90;;;;;;4972802;28;20027;-70
2022/09/21 03:47:43;;;;;;;4.75;1.60;;;7.70;99.90;;;;;;4955364;28;20030;-71
2022/09/21 03:50:10;;;;;;;5.20;2.78;;;7.70;99.90;;;;;;4972820;28;20093;-71
2022/09/21 03:52:36;;;;;;;13.63;2.35;;;7.60;99.90;;;;;;4976380;28;20043;-69
2022/09/21 03:55:05;;;;;;;8.68;2.67;;;7.60;99.90;;;;;;4976202;28;20030;-70
2022/09/21 03:57:31;;;;;;;7.43;2.38;;;7.70;99.90;;;;;;4976120;28;20030;-71
2022/09/21 03:59:57;;;;;;;7.60;2.05;;;7.60;99.90;;;;;;4976028;28;20098;-72
2022/09/21 04:02:22;;;;;;;8.13;2.25;;;7.60;99.90;;;;;;4976371;28;20070;-70
2022/09/21 04:04:48;;;;;;;3.65;2.05;;;7.60;99.90;;;;;;4976503;28;20042;-71
2022/09/21 04:07:14;;;;;;;3.58;1.92;;;7.50;99.90;;;;;;4976402;28;20074;-72
2022/09/21 04:09:40;;;;;;;5.15;1.95;;;7.50;99.90;;;;;;4975597;28;20095;-72
2022/09/21 04:12:06;;;;;;;6.15;2.35;;;7.50;99.90;;;;;;4955292;28;20044;-70
2022/09/21 04:14:33;;;;;;;4.65;2.20;;;7.50;99.90;;;;;;4955261;29;20043;-71
2022/09/21 04:16:58;;;;;;;6.45;2.17;;;7.60;99.90;;;;;;4957212;29;20052;-72
2022/09/21 04:19:24;;;;;;;9.10;2.50;;;7.40;99.90;;;;;;4956879;29;20040;-71
2022/09/21 04:21:52;;;;;;;4.72;2.08;;;7.50;99.90;;;;;;4956563;29;20048;-70
2022/09/21 04:24:18;;;;;;;4.03;2.20;;;7.50;99.90;;;;;;4956291;29;20121;-71
2022/09/21 04:26:45;;;;;;;5.93;2.47;;;7.40;99.90;;;;;;4956957;29;20019;-72
2022/09/21 04:29:15;;;;;;;4.30;2.05;;;7.40;99.90;;;;;;4955925;29;20031;-71
2022/09/21 04:31:41;;;;;;;5.45;2.55;;;7.40;99.90;;;;;;4956404;29;20031;-70
2022/09/21 04:34:10;;;;;;;3.75;1.88;;;7.40;99.90;;;;;;4956266;29;20068;-71
2022/09/21 04:36:36;;;;;;;4.55;2.17;;;7.40;99.90;;;;;;4956180;29;20102;-71
2022/09/21 04:39:04;;;;;;;5.55;2.13;;;7.40;99.90;;;;;;4956433;29;20051;-70
2022/09/21 04:41:30;;;;;;;7.28;2.38;;;7.40;99.90;;;;;;4956296;29;20031;-70
2022/09/21 04:43:55;;;;;;;12.00;2.75;;;7.40;99.90;;;;;;4955928;29;20027;-71
2022/09/21 04:46:21;;;;;;;7.72;2.83;;;7.40;99.90;;;;;;4956383;29;20027;-69
2022/09/21 04:48:48;;;;;;;12.77;2.58;;;7.40;99.90;;;;;;4956209;29;20042;-70
2022/09/21 04:51:15;;;;;;;8.70;3.92;;;7.40;99.90;;;;;;4956085;29;20055;-73
2022/09/21 04:53:42;;;;;;;7.75;3.30;;;7.50;99.90;;;;;;4955642;29;20031;-71
2022/09/21 04:56:09;;;;;;;12.18;3.47;;;7.50;99.90;;;;;;4956022;29;20020;-73
2022/09/21 04:58:35;;;;;;;5.00;2.63;;;7.40;99.90;;;;;;4955581;29;20035;-72
2022/09/21 05:01:03;;;;;;;7.57;2.78;;;7.40;99.90;;;;;;4956183;29;20035;-71
2022/09/21 05:03:29;;;;;;;6.18;2.70;;;7.50;99.90;;;;;;4955548;29;20409;-74
2022/09/21 05:05:56;;;;;;;5.95;2.72;;;7.30;99.90;;;;;;4952911;29;20035;-73
2022/09/21 05:11:13;;;;;;;4.13;2.30;;;7.40;99.90;;;;;;4954881;29;20046;-72
2022/09/21 05:13:39;;;;;;;6.30;2.83;;;7.30;99.90;;;;;;4971370;28;20190;-73
2022/09/21 05:16:05;;;;;;;5.93;2.88;;;7.40;99.90;;;;;;4974230;28;20027;-72
2022/09/21 05:18:30;;;;;;;5.75;3.40;;;7.30;99.90;;;;;;4971534;28;20058;-74
2022/09/21 05:20:58;;;;;;;10.65;2.95;;;7.40;99.90;;;;;;4975163;28;20039;-71
2022/09/21 05:23:25;;;;;;;9.82;3.30;;;7.30;99.90;;;;;;4974922;28;20026;-73
2022/09/21 05:25:50;;;;;;;6.72;2.70;;;7.30;99.90;;;;;;4975869;28;20047;-73
2022/09/21 05:28:17;;;;;;;4.50;2.20;;;7.30;99.90;;;;;;4974103;28;20039;-73
2022/09/21 05:30:56;;;;;;;5.28;2.40;;;7.30;99.90;;;;;;4974126;28;20106;-75
2022/09/21 05:33:26;;;;;;;4.85;2.15;;;7.30;99.90;;;;;;4979687;28;20035;-75
2022/09/21 05:36:22;;;;;;;6.47;2.90;;;7.30;99.90;;;;;;4974298;28;20109;-73
2022/09/21 05:38:49;;;;;;;5.50;2.55;;;7.30;99.90;;;;;;4974952;28;20037;-72
2022/09/21 05:41:14;;;;;;;4.28;2.22;;;7.30;99.90;;;;;;4974747;28;20027;-73
2022/09/21 05:43:40;;;;;;;7.80;2.25;;;7.30;99.90;;;;;;4971554;28;20042;-73
2022/09/21 05:46:19;;;;;;;6.68;2.58;;;7.30;99.90;;;;;;4970648;28;20029;-72
2022/09/21 05:48:57;;;;;;;5.53;1.95;;;7.30;99.90;;;;;;4969753;28;20042;-72
2022/09/21 05:51:37;;;;;;;3.30;1.70;;;7.30;99.90;;;;;;4972947;28;20475;-72
2022/09/21 05:54:20;;;;;;;7.97;2.30;;;7.20;99.90;;;;;;4972071;28;20581;-71
2022/09/21 05:56:54;;;;;;;10.73;2.15;;;7.20;99.90;;;;;;4974489;28;20041;-72
2022/09/21 05:59:49;;;;;;;4.07;2.13;;;7.30;99.90;;;;;;4957544;28;20035;-72
2022/09/21 06:02:49;;;;;;;3.97;2.10;;;7.20;99.90;;;;;;4973957;28;20030;-71
2022/09/21 06:05:16;;;;;;;4.55;2.25;;;7.30;99.90;;;;;;4971262;28;20027;-73
2022/09/21 06:07:41;;;;;;;5.63;2.13;;;7.30;99.90;;;;;;4971490;28;20026;-71
2022/09/21 06:10:11;;;;;;;6.47;2.22;;;7.30;99.90;;;;;;4973093;28;20138;-74
2022/09/21 06:12:37;;;;;;;10.05;4.45;;;7.30;99.90;;;;;;4972299;28;20082;-72
2022/09/21 06:15:04;;;;;;;7.25;3.40;;;7.30;99.90;;;;;;4954887;28;20035;-73
2022/09/21 06:17:31;;;;;;;5.40;3.00;;;7.40;99.90;;;;;;4972583;28;20374;-71
2022/09/21 06:19:57;;;;;;;12.27;2.88;;;7.50;99.90;;;;;;4972965;28;20023;-72
2022/09/21 06:22:22;;;;;;;6.22;3.05;;;7.50;99.90;;;;;;4971959;28;20471;-72
2022/09/21 06:24:48;;;;;;;5.90;3.35;;;7.60;99.90;;;;;;4955204;28;20043;-74
2022/09/21 06:27:13;;;;;;;12.73;3.78;;;7.60;99.90;;;;;;4975030;28;20034;-73
2022/09/21 06:29:39;;;;;;;6.10;3.20;;;7.60;99.90;;;;;;4973704;28;20023;-71
2022/09/21 06:32:05;;;;;;;8.93;4.10;;;7.70;99.90;;;;;;4973296;28;20095;-71
2022/09/21 06:34:30;;;;;;;8.82;4.18;;;7.90;99.90;;;;;;4973054;28;20844;-72
2022/09/21 06:36:57;;;;;;;11.23;3.42;;;7.90;99.90;;;;;;4973444;28;20744;-71
2022/09/21 06:39:22;;;;;;;5.65;3.00;;;8.00;99.90;;;;;;4956318;28;20488;-72
2022/09/21 06:41:48;;;;;;;8.13;3.67;;;8.10;99.90;;;;;;4972291;28;20023;-72
2022/09/21 06:44:13;;;;;;;8.75;3.60;;;8.20;99.90;;;;;;4971986;28;20055;-72
2022/09/21 06:46:39;;;;;;;11.95;3.35;;;8.30;99.90;;;;;;4972121;28;20436;-70
2022/09/21 06:49:05;;;;;;;10.20;3.65;;;8.40;99.90;;;;;;4968435;28;20035;-71
2022/09/21 06:51:31;;;;;;;9.88;3.45;;;8.50;99.90;;;;;;4972690;28;20086;-74
2022/09/21 06:53:57;;;;;;;7.03;3.05;;;8.60;99.90;;;;;;4952424;28;20043;-72
2022/09/21 06:56:24;;;;;;;3.10;1.90;;;8.70;99.90;;;;;;4970751;28;20031;-72
2022/09/21 06:58:50;;;;;;;6.20;3.13;;;8.80;99.90;;;;;;4975341;28;20432;-72
2022/09/21 07:01:15;;;;;;;12.73;3.85;;;8.90;99.90;;;;;;4972888;28;20019;-72
2022/09/21 07:03:42;;;;;;;12.05;2.83;;;9.00;99.90;;;;;;4972016;28;20042;-73
2022/09/21 07:06:14;;;;;;;6.88;3.25;;;9.10;99.90;;;;;;4970400;28;20035;-73
2022/09/21 07:08:41;;;;;;;8.00;3.40;;;9.30;99.90;;;;;;4972224;28;20498;-72
2022/09/21 07:11:07;;;;;;;6.68;3.30;;;9.40;99.90;;;;;;4963089;28;20054;-73
2022/09/21 07:13:34;;;;;;;14.85;2.85;;;9.50;99.90;;;;;;4969794;28;20054;-73
2022/09/21 07:16:04;;;;;;;6.60;2.50;;;9.60;99.90;;;;;;4954149;28;21101;-72
2022/09/21 07:18:30;;;;;;;5.93;2.97;;;9.80;99.90;;;;;;4951453;28;20047;-72
2022/09/21 07:20:55;;;;;;;6.30;3.40;;;10.00;99.90;;;;;;4953032;28;20031;-73
2022/09/21 07:23:21;;;;;;;55.38;17.63;;;10.10;99.90;;;;;;4971985;28;20023;-72
2022/09/21 07:25:49;;;;;;;33.38;11.85;;;10.20;99.90;;;;;;4972019;28;20022;-74
2022/09/21 07:28:15;;;;;;;11.95;5.28;;;10.40;99.90;;;;;;4956005;28;20031;-73
2022/09/21 07:30:41;;;;;;;11.07;3.63;;;10.50;99.90;;;;;;4972652;28;20023;-72
2022/09/21 07:33:08;;;;;;;6.18;3.15;;;10.60;99.90;;;;;;4969180;28;20047;-72
2022/09/21 07:35:33;;;;;;;9.45;3.30;;;10.80;99.90;;;;;;4972775;28;20102;-73
2022/09/21 07:38:02;;;;;;;4.25;2.55;;;10.80;99.90;;;;;;4955471;28;20057;-73
2022/09/21 07:40:28;;;;;;;7.05;2.42;;;11.00;99.90;;;;;;4966049;28;20099;-73
2022/09/21 07:42:58;;;;;;;6.25;2.72;;;11.10;99.90;;;;;;4972885;28;20099;-73
2022/09/21 07:45:24;;;;;;;8.43;1.88;;;11.30;99.90;;;;;;4969096;28;20031;-73
2022/09/21 07:47:53;;;;;;;7.03;1.92;;;11.50;99.90;;;;;;4971540;28;20037;-74
2022/09/21 07:50:19;;;;;;;4.30;1.92;;;11.80;99.90;;;;;;4971886;28;20023;-73
2022/09/21 07:52:45;;;;;;;5.65;1.27;;;12.10;99.90;;;;;;4969800;28;20078;-73
2022/09/21 07:55:10;;;;;;;4.25;1.10;;;12.30;99.90;;;;;;4971562;28;20038;-74
2022/09/21 08:00:21;;;;;;;12.75;1.52;;;12.80;99.90;;;;;;4973110;28;20034;-71
2022/09/21 08:02:46;;;;;;;2.75;1.08;;;12.90;99.90;;;;;;4973426;28;20130;-72
2022/09/21 08:05:12;;;;;;;12.98;1.80;;;13.00;99.90;;;;;;4958038;28;20058;-72
2022/09/21 08:07:38;;;;;;;2.78;1.60;;;13.20;99.90;;;;;;4972824;28;20027;-73
2022/09/21 08:10:03;;;;;;;3.55;1.48;;;13.30;99.90;;;;;;4972235;28;20512;-72
2022/09/21 08:12:29;;;;;;;5.28;1.65;;;13.30;99.90;;;;;;4972232;28;20127;-74
2022/09/21 08:14:55;;;;;;;8.60;1.40;;;13.40;99.90;;;;;;4972515;28;20047;-73
2022/09/21 08:17:20;;;;;;;4.13;1.10;;;13.40;99.90;;;;;;4972414;28;20022;-72
2022/09/21 08:19:46;;;;;;;6.93;1.35;;;13.50;99.90;;;;;;4972214;28;20028;-73
2022/09/21 08:22:12;;;;;;;8.63;1.38;;;13.50;99.90;;;;;;4971107;28;20035;-75
2022/09/21 08:24:43;;;;;;;2.65;0.77;;;13.50;99.90;;;;;;4972808;28;20027;-72
2022/09/21 08:27:09;;;;;;;4.65;1.20;;;13.50;99.90;;;;;;4972509;28;20028;-71
2022/09/21 08:29:35;;;;;;;3.47;1.02;;;13.60;99.90;;;;;;4970496;28;20023;-73
2022/09/21 08:32:01;;;;;;;0.82;0.57;;;13.60;99.90;;;;;;4972663;28;20026;-72
2022/09/21 08:34:27;;;;;;;2.63;0.85;;;13.70;99.90;;;;;;4970652;28;20060;-75
2022/09/21 08:36:52;;;;;;;2.90;0.70;;;13.80;99.90;;;;;;4970921;28;20019;-73
2022/09/21 08:39:18;;;;;;;5.53;1.02;;;13.80;99.90;;;;;;4975331;28;20487;-72
2022/09/21 08:42:09;;;;;;;1.83;1.02;;;13.80;99.90;;;;;;4974278;28;20046;-72
2022/09/21 08:44:41;;;;;;;1.25;0.60;;;13.80;99.90;;;;;;4971301;28;20333;-73
2022/09/21 08:47:21;;;;;;;4.75;0.70;;;13.90;99.90;;;;;;4972780;28;20035;-72
2022/09/21 08:49:54;;;;;;;4.95;1.00;;;13.90;99.90;;;;;;4972666;28;20073;-73
2022/09/21 08:52:20;;;;;;;2.58;0.75;;;13.90;99.90;;;;;;4974380;28;20039;-72
2022/09/21 08:55:23;;;;;;;12.13;1.20;;;14.00;99.90;;;;;;4975474;28;20038;-73
2022/09/21 08:57:48;;;;;;;1.65;0.50;;;14.10;99.90;;;;;;4911475;29;20094;-73
2022/09/21 09:00:16;;;;;;;1.67;1.17;;;14.10;99.90;;;;;;4960298;28;20543;-73
2022/09/21 09:02:53;;;;;;;8.77;0.70;;;14.20;99.90;;;;;;4974743;28;20399;-71
2022/09/21 09:05:40;;;;;;;7.75;1.27;;;14.30;99.90;;;;;;4957027;28;20027;-73
2022/09/21 09:08:18;;;;;;;3.17;1.05;;;14.30;99.90;;;;;;4971286;28;20042;-73
2022/09/21 09:11:14;;;;;;;2.72;0.70;;;14.40;99.90;;;;;;4972747;28;20038;-73
2022/09/21 09:13:57;;;;;;;2.67;1.17;;;14.40;99.90;;;;;;4974783;28;20055;-72
2022/09/21 09:16:34;;;;;;;4.28;1.25;;;14.50;99.90;;;;;;4971631;28;20039;-72
2022/09/21 09:19:08;;;;;;;5.82;0.88;;;14.60;99.90;;;;;;4972541;28;20015;-73
2022/09/21 09:21:39;;;;;;;2.13;0.82;;;14.60;99.90;;;;;;4974881;28;20459;-73
2022/09/21 09:24:16;;;;;;;12.02;1.25;;;14.70;99.90;;;;;;4974645;28;20039;-72
2022/09/21 09:26:42;;;;;;;1.55;0.50;;;14.80;99.90;;;;;;4975163;28;20113;-72
2022/09/21 09:29:29;;;;;;;4.43;1.50;;;14.90;99.90;;;;;;4973221;28;20054;-73
2022/09/21 09:31:57;;;;;;;2.67;0.63;;;15.00;99.90;;;;;;4972789;28;20079;-70
2022/09/21 09:34:52;;;;;;;1.02;0.60;;;15.00;99.90;;;;;;5394994;23;20050;-73
2022/09/21 09:37:26;;;;;;;6.75;1.05;;;15.10;99.90;;;;;;4970781;28;20375;-72
2022/09/21 09:40:06;;;;;;;4.05;0.90;;;15.20;99.90;;;;;;4973612;28;20054;-73
2022/09/21 09:42:55;;;;;;;1.27;0.77;;;15.20;99.90;;;;;;4974309;28;20037;-72
2022/09/21 09:45:30;;;;;;;9.30;1.02;;;15.30;99.90;;;;;;4972520;28;20035;-74
2022/09/21 09:48:28;;;;;;;4.45;1.15;;;15.40;99.90;;;;;;4974457;28;20058;-74
2022/09/21 09:50:53;;;;;;;2.75;0.70;;;15.40;99.90;;;;;;4966627;28;20039;-72
2022/09/21 09:53:25;;;;;;;2.47;0.95;;;15.50;99.90;;;;;;4973607;28;20043;-72
2022/09/21 09:55:56;;;;;;;4.95;1.05;;;15.60;99.90;;;;;;4973809;28;20066;-73
2022/09/21 09:58:48;;;;;;;3.22;0.95;;;15.70;99.90;;;;;;4972844;28;20065;-75
2022/09/21 10:01:37;;;;;;;3.53;0.85;;;15.90;99.90;;;;;;4974064;28;20977;-73
2022/09/21 10:04:16;;;;;;;1.23;0.50;;;15.90;99.90;;;;;;4957420;28;20031;-75
2022/09/21 10:06:43;;;;;;;2.50;0.82;;;15.90;99.90;;;;;;4970441;28;20030;-72
2022/09/21 10:09:28;;;;;;;2.08;0.70;;;16.00;99.90;;;;;;4957310;28;20050;-74
2022/09/21 10:11:59;;;;;;;2.78;1.00;;;16.00;99.90;;;;;;4973898;28;20391;-72
2022/09/21 10:14:28;;;;;;;2.83;1.00;;;16.10;99.90;;;;;;4972768;28;20099;-73
2022/09/21 10:16:55;;;;;;;2.65;0.70;;;16.10;99.90;;;;;;4974371;28;20038;-73
2022/09/21 10:19:24;;;;;;;1.52;1.05;;;16.20;99.90;;;;;;4973258;28;20055;-71
2022/09/21 10:22:01;;;;;;;11.10;1.27;;;16.30;99.90;;;;;;4972368;28;20031;-72
2022/09/21 10:24:39;;;;;;;5.30;0.77;;;16.40;99.90;;;;;;4974030;28;20049;-73
2022/09/21 10:27:14;;;;;;;1.65;0.88;;;16.50;99.90;;;;;;4972765;28;20566;-75
2022/09/21 10:29:42;;;;;;;1.90;0.82;;;16.50;99.90;;;;;;4955561;28;20031;-74
2022/09/21 10:32:11;;;;;;;3.03;0.80;;;16.60;99.90;;;;;;4973552;28;20075;-76
2022/09/21 10:34:38;;;;;;;0.82;0.63;;;16.70;99.90;;;;;;4969018;28;20506;-74
2022/09/21 10:37:26;;;;;;;1.27;0.60;;;16.70;99.90;;;;;;4971028;28;20023;-72
2022/09/21 10:39:52;;;;;;;4.78;0.90;;;16.80;99.90;;;;;;4972688;28;20074;-76
2022/09/21 10:42:19;;;;;;;2.13;0.70;;;16.90;99.90;;;;;;4968439;28;20526;-72
2022/09/21 10:45:06;;;;;;;7.90;0.73;;;17.00;99.90;;;;;;4973126;28;20054;-72
2022/09/21 10:47:39;;;;;;;3.83;1.10;;;17.20;99.90;;;;;;4973011;28;20487;-77
2022/09/21 10:50:49;;;;;;;2.90;0.70;;;17.30;99.90;;;;;;4973222;28;20027;-74
2022/09/21 10:53:33;;;;;;;2.58;0.70;;;17.30;99.90;;;;;;4955698;28;20051;-74
2022/09/21 10:56:08;;;;;;;3.70;1.05;;;17.40;99.90;;;;;;4964215;28;20035;-76
2022/09/21 10:58:34;;;;;;;5.57;0.65;;;17.60;99.90;;;;;;4964080;28;20031;-72
2022/09/21 11:01:21;;;;;;;8.77;1.15;;;17.70;99.90;;;;;;4971374;28;20027;-75
2022/09/21 11:03:56;;;;;;;3.58;0.60;;;17.70;99.90;;;;;;4971830;28;20031;-73
2022/09/21 11:06:30;;;;;;;6.53;0.70;;;17.70;99.90;;;;;;4955352;28;20062;-77
2022/09/21 11:09:05;;;;;;;5.20;0.82;;;17.70;99.90;;;;;;4955582;28;20034;-76
2022/09/21 11:11:41;;;;;;;1.75;0.75;;;17.70;99.90;;;;;;4972245;28;20042;-78
2022/09/21 11:14:19;;;;;;;0.93;0.52;;;17.70;99.90;;;;;;4971662;28;20035;-76
2022/09/21 11:16:55;;;;;;;1.17;0.45;;;17.70;99.90;;;;;;4970575;28;20034;-74
2022/09/21 11:19:29;;;;;;;7.10;0.65;;;17.70;99.90;;;;;;4971829;28;20034;-74
2022/09/21 11:22:01;;;;;;;1.85;0.55;;;17.60;99.90;;;;;;4968702;28;20032;-74
2022/09/21 11:24:48;;;;;;;4.97;0.82;;;17.70;99.90;;;;;;4970191;28;20585;-72
2022/09/21 11:27:38;;;;;;;7.20;0.77;;;17.80;99.90;;;;;;4969160;28;20098;-73
2022/09/21 11:30:15;;;;;;;6.63;0.80;;;18.00;99.90;;;;;;4951157;28;20106;-73
2022/09/21 11:33:01;;;;;;;7.15;1.17;;;18.10;99.90;;;;;;4972231;28;20045;-74
2022/09/21 11:36:00;;;;;;;2.45;0.95;;;18.20;99.90;;;;;;4954546;28;20495;-76
2022/09/21 11:38:54;;;;;;;2.53;0.60;;;18.20;99.90;;;;;;4951846;28;20038;-75
2022/09/21 11:41:36;;;;;;;1.98;0.82;;;18.10;99.90;;;;;;4972886;28;20039;-77
2022/09/21 11:44:17;;;;;;;4.75;1.00;;;17.70;99.90;;;;;;4971369;28;20471;-73
2022/09/21 11:46:54;;;;;;;1.02;0.55;;;17.40;99.90;;;;;;4970664;28;20027;-73
2022/09/21 11:49:42;;;;;;;0.88;0.35;;;17.30;99.90;;;;;;4971430;28;20027;-74
2022/09/21 11:52:20;;;;;;;0.30;0.20;;;17.50;99.90;;;;;;4954005;28;20126;-74
2022/09/21 11:55:22;;;;;;;4.45;0.98;;;17.80;99.90;;;;;;4952508;28;20038;-75
2022/09/21 11:58:05;;;;;;;5.78;0.77;;;18.10;99.90;;;;;;4954472;28;20523;-73
2022/09/21 12:00:58;;;;;;;1.80;0.60;;;18.30;99.90;;;;;;4971409;28;20034;-75
2022/09/21 12:04:06;;;;;;;5.32;0.82;;;18.60;99.90;;;;;;4971730;28;20086;-78
2022/09/21 12:06:34;;;;;;;1.65;0.50;;;18.70;99.90;;;;;;4970361;28;20082;-77
2022/09/21 12:09:38;;;;;;;3.60;0.60;;;18.80;99.90;;;;;;4953394;28;20499;-75
2022/09/21 12:12:34;;;;;;;4.15;1.00;;;19.00;99.90;;;;;;4973387;28;20030;-74
2022/09/21 12:15:18;;;;;;;2.47;0.50;;;19.10;99.90;;;;;;4972711;28;20051;-75
2022/09/21 12:18:06;;;;;;;4.72;0.80;;;19.30;99.90;;;;;;4974330;28;20783;-74
2022/09/21 12:20:53;;;;;;;1.00;0.73;;;19.50;99.90;;;;;;4974627;28;20023;-74
2022/09/21 12:23:53;;;;;;;2.35;0.60;;;19.70;99.90;;;;;;4976370;28;20035;-75
2022/09/21 12:26:32;;;;;;;2.90;0.73;;;19.80;99.90;;;;;;4966149;28;20039;-74
2022/09/21 12:29:18;;;;;;;2.78;0.52;;;20.10;99.90;;;;;;4972779;28;20090;-74
2022/09/21 12:31:56;;;;;;;3.15;0.68;;;20.40;99.90;;;;;;4975466;28;20038;-74
2022/09/21 12:34:26;;;;;;;3.60;0.93;;;20.70;99.90;;;;;;4974349;28;20057;-75
2022/09/21 12:37:11;;;;;;;8.98;0.63;;;20.90;99.90;;;;;;4975486;28;20034;-76
2022/09/21 12:39:55;;;;;;;0.98;0.40;;;21.00;99.90;;;;;;4976717;28;20027;-77
2022/09/21 12:42:21;;;;;;;;;;;21.00;99.90;;;;;;4978395;28;20463;-74
2022/09/21 12:44:54;;;;;;;0.65;0.50;;;20.90;99.90;;;;;;4975177;28;19929;-76
2022/09/21 12:47:44;;;;;;;3.70;0.85;;;20.80;99.90;;;;;;4975641;28;20015;-74
2022/09/21 12:50:31;;;;;;;1.10;0.50;;;20.70;99.90;;;;;;4973884;28;20960;-77
2022/09/21 12:52:57;;;;;;;0.75;0.50;;;20.60;99.90;;;;;;4975302;28;20050;-74
2022/09/21 12:55:32;;;;;;;1.45;0.60;;;20.60;99.90;;;;;;4974588;28;20033;-75
2022/09/21 12:58:08;;;;;;;2.88;0.47;;;20.70;99.90;;;;;;4973737;28;20438;-74
2022/09/21 13:00:45;;;;;;;0.75;0.38;;;20.80;99.90;;;;;;4972572;28;20050;-74
2022/09/21 13:03:27;;;;;;;6.75;0.63;;;20.80;99.90;;;;;;4973815;28;20031;-74
2022/09/21 13:06:13;;;;;;;1.50;0.63;;;20.90;99.90;;;;;;4950568;28;20042;-78
2022/09/21 13:08:43;;;;;;;1.73;0.40;;;20.90;99.90;;;;;;4951441;28;20042;-74
2022/09/21 13:11:10;;;;;;;1.85;0.45;;;20.80;99.90;;;;;;4970771;28;20035;-77
2022/09/21 13:13:52;;;;;;;1.88;0.52;;;20.80;99.90;;;;;;4970737;28;20043;-75
2022/09/21 13:16:33;;;;;;;7.55;0.95;;;20.80;99.90;;;;;;4963384;28;20027;-78
2022/09/21 13:19:20;;;;;;;0.52;0.35;;;20.80;99.90;;;;;;4956534;28;20486;-78
2022/09/21 13:22:13;;;;;;;4.47;0.85;;;20.70;99.90;;;;;;4953767;28;20031;-76
2022/09/21 13:24:41;;;;;;;2.03;0.82;;;20.60;99.90;;;;;;4971581;28;20124;-73
2022/09/21 13:27:07;;;;;;;7.30;0.93;;;20.20;99.90;;;;;;4971734;28;20019;-75
2022/09/21 13:29:35;;;;;;;2.55;0.77;;;19.80;99.90;;;;;;4956281;28;20050;-74